sensor_id;sensor_type;location;lat;lon;timestamp;temperature;humidity
48744;DHT22;34538;48.836;9.174;2023-02-12T00:01:15;6.00;99.90
48744;DHT22;34538;48.836;9.174;2023-02-12T00:03:43;6.00;99.90
48744;DHT22;34538;48.836;9.174;2023-02-12T00:06:10;6.10;99.90
48744;DHT22;34538;48.836;9.174;2023-02-12T00:08:38;6.00;99.90
48744;DHT22;34538;48.836;9.174;2023-02-12T00:11:09;6.00;99.90
48744;DHT22;34538;48.836;9.174;2023-02-12T00:13:37;6.00;99.90
48744;DHT22;34538;48.836;9.174;2023-02-12T00:16:06;6.00;99.90
48744;DHT22;34538;48.836;9.174;2023-02-12T00:18:33;6.00;99.90
48744;DHT22;34538;48.836;9.174;2023-02-12T00:21:01;5.90;99.90
48744;DHT22;34538;48.836;9.174;2023-02-12T00:23:28;5.90;99.90
48744;DHT22;34538;48.836;9.174;2023-02-12T00:25:55;5.90;99.90
48744;DHT22;34538;48.836;9.174;2023-02-12T00:28:22;5.90;99.90
48744;DHT22;34538;48.836;9.174;2023-02-12T00:30:49;5.90;99.90
48744;DHT22;34538;48.836;9.174;2023-02-12T00:33:17;5.90;99.90
48744;DHT22;34538;48.836;9.174;2023-02-12T00:35:44;5.90;99.90
48744;DHT22;34538;48.836;9.174;2023-02-12T00:38:11;5.90;99.90
48744;DHT22;34538;48.836;9.174;2023-02-12T00:40:37;5.90;99.90
48744;DHT22;34538;48.836;9.174;2023-02-12T00:43:04;5.90;99.90
48744;DHT22;34538;48.836;9.174;2023-02-12T00:45:32;5.90;99.90
48744;DHT22;34538;48.836;9.174;2023-02-12T00:47:58;5.90;99.90
48744;DHT22;34538;48.836;9.174;2023-02-12T00:50:27;5.90;99.90
48744;DHT22;34538;48.836;9.174;2023-02-12T00:52:54;5.90;99.90
48744;DHT22;34538;48.836;9.174;2023-02-12T00:55:21;5.90;99.90
48744;DHT22;34538;48.836;9.174;2023-02-12T00:57:48;5.90;99.90
48744;DHT22;34538;48.836;9.174;2023-02-12T01:00:15;5.90;99.90
48744;DHT22;34538;48.836;9.174;2023-02-12T01:02:42;5.90;99.90
48744;DHT22;34538;48.836;9.174;2023-02-12T01:05:09;5.90;99.90
48744;DHT22;34538;48.836;9.174;2023-02-12T01:07:37;5.90;99.90
48744;DHT22;34538;48.836;9.174;2023-02-12T01:10:06;5.90;99.90
48744;DHT22;34538;48.836;9.174;2023-02-12T01:12:34;5.90;99.90
48744;DHT22;34538;48.836;9.174;2023-02-12T01:15:01;5.90;99.90
48744;DHT22;34538;48.836;9.174;2023-02-12T01:17:27;5.90;99.90
48744;DHT22;34538;48.836;9.174;2023-02-12T01:19:56;5.80;99.90
48744;DHT22;34538;48.836;9.174;2023-02-12T01:22:24;5.80;99.90
48744;DHT22;34538;48.836;9.174;2023-02-12T01:24:52;5.80;99.90
48744;DHT22;34538;48.836;9.174;2023-02-12T01:27:19;5.70;99.90
48744;DHT22;34538;48.836;9.174;2023-02-12T01:29:46;5.80;99.90
48744;DHT22;34538;48.836;9.174;2023-02-12T01:32:13;5.80;99.90
48744;DHT22;34538;48.836;9.174;2023-02-12T01:34:40;5.80;99.90
48744;DHT22;34538;48.836;9.174;2023-02-12T01:37:07;5.80;99.90
48744;DHT22;34538;48.836;9.174;2023-02-12T01:39:34;5.80;99.90
48744;DHT22;34538;48.836;9.174;2023-02-12T01:42:03;5.80;99.90
48744;DHT22;34538;48.836;9.174;2023-02-12T01:44:32;5.80;99.90
48744;DHT22;34538;48.836;9.174;2023-02-12T01:47:01;5.80;99.90
48744;DHT22;34538;48.836;9.174;2023-02-12T01:49:31;5.80;99.90
48744;DHT22;34538;48.836;9.174;2023-02-12T01:52:04;5.80;99.90
48744;DHT22;34538;48.836;9.174;2023-02-12T01:54:33;5.80;99.90
48744;DHT22;34538;48.836;9.174;2023-02-12T01:57:03;5.70;99.90
48744;DHT22;34538;48.836;9.174;2023-02-12T01:59:30;5.70;99.90
48744;DHT22;34538;48.836;9.174;2023-02-12T02:01:58;5.70;99.90
48744;DHT22;34538;48.836;9.174;2023-02-12T02:04:28;5.80;99.90
48744;DHT22;34538;48.836;9.174;2023-02-12T02:06:57;5.70;99.90
48744;DHT22;34538;48.836;9.174;2023-02-12T02:09:25;5.70;99.90
48744;DHT22;34538;48.836;9.174;2023-02-12T02:11:54;5.70;99.90
48744;DHT22;34538;48.836;9.174;2023-02-12T02:14:40;5.70;99.90
48744;DHT22;34538;48.836;9.174;2023-02-12T02:17:31;5.70;99.90
48744;DHT22;34538;48.836;9.174;2023-02-12T02:20:27;5.70;99.90
48744;DHT22;34538;48.836;9.174;2023-02-12T02:26:08;5.70;99.90
48744;DHT22;34538;48.836;9.174;2023-02-12T02:29:12;5.70;99.90
48744;DHT22;34538;48.836;9.174;2023-02-12T02:31:48;5.60;99.90
48744;DHT22;34538;48.836;9.174;2023-02-12T02:34:25;5.70;99.90
48744;DHT22;34538;48.836;9.174;2023-02-12T02:36:59;5.70;99.90
48744;DHT22;34538;48.836;9.174;2023-02-12T02:39:33;5.70;99.90
48744;DHT22;34538;48.836;9.174;2023-02-12T02:42:08;5.60;99.90
48744;DHT22;34538;48.836;9.174;2023-02-12T02:44:38;5.60;99.90
48744;DHT22;34538;48.836;9.174;2023-02-12T02:47:12;5.60;99.90
48744;DHT22;34538;48.836;9.174;2023-02-12T02:49:44;5.60;99.90
48744;DHT22;34538;48.836;9.174;2023-02-12T02:52:18;5.70;99.90
48744;DHT22;34538;48.836;9.174;2023-02-12T02:54:48;5.70;99.90
48744;DHT22;34538;48.836;9.174;2023-02-12T02:57:18;5.60;99.90
48744;DHT22;34538;48.836;9.174;2023-02-12T02:59:53;5.60;99.90
48744;DHT22;34538;48.836;9.174;2023-02-12T03:02:25;5.60;99.90
48744;DHT22;34538;48.836;9.174;2023-02-12T03:04:56;5.60;99.90
48744;DHT22;34538;48.836;9.174;2023-02-12T03:07:26;5.60;99.90
48744;DHT22;34538;48.836;9.174;2023-02-12T03:09:57;5.60;99.90
48744;DHT22;34538;48.836;9.174;2023-02-12T03:12:30;5.60;99.90
48744;DHT22;34538;48.836;9.174;2023-02-12T03:15:03;5.60;99.90
48744;DHT22;34538;48.836;9.174;2023-02-12T03:17:36;5.60;99.90
48744;DHT22;34538;48.836;9.174;2023-02-12T03:20:07;5.60;99.90
48744;DHT22;34538;48.836;9.174;2023-02-12T03:22:37;5.60;99.90
48744;DHT22;34538;48.836;9.174;2023-02-12T03:25:10;5.60;99.90
48744;DHT22;34538;48.836;9.174;2023-02-12T03:27:42;5.60;99.90
48744;DHT22;34538;48.836;9.174;2023-02-12T03:30:13;5.60;99.90
48744;DHT22;34538;48.836;9.174;2023-02-12T03:32:47;5.60;99.90
48744;DHT22;34538;48.836;9.174;2023-02-12T03:35:21;5.60;99.90
48744;DHT22;34538;48.836;9.174;2023-02-12T03:37:55;5.60;99.90
48744;DHT22;34538;48.836;9.174;2023-02-12T03:40:28;5.60;99.90
48744;DHT22;34538;48.836;9.174;2023-02-12T03:42:58;5.60;99.90
48744;DHT22;34538;48.836;9.174;2023-02-12T03:45:36;5.50;99.90
48744;DHT22;34538;48.836;9.174;2023-02-12T03:48:09;5.50;99.90
48744;DHT22;34538;48.836;9.174;2023-02-12T03:50:42;5.60;99.90
48744;DHT22;34538;48.836;9.174;2023-02-12T03:53:11;5.50;99.90
48744;DHT22;34538;48.836;9.174;2023-02-12T03:55:41;5.50;99.90
48744;DHT22;34538;48.836;9.174;2023-02-12T03:58:12;5.50;99.90
48744;DHT22;34538;48.836;9.174;2023-02-12T04:00:42;5.50;99.90
48744;DHT22;34538;48.836;9.174;2023-02-12T04:03:11;5.50;99.90
48744;DHT22;34538;48.836;9.174;2023-02-12T04:05:37;5.50;99.90
48744;DHT22;34538;48.836;9.174;2023-02-12T04:08:07;5.50;99.90
48744;DHT22;34538;48.836;9.174;2023-02-12T04:10:41;5.50;99.90
48744;DHT22;34538;48.836;9.174;2023-02-12T04:13:16;5.50;99.90
48744;DHT22;34538;48.836;9.174;2023-02-12T04:15:53;5.50;99.90
48744;DHT22;34538;48.836;9.174;2023-02-12T04:18:26;5.50;99.90
48744;DHT22;34538;48.836;9.174;2023-02-12T04:21:03;5.50;99.90
48744;DHT22;34538;48.836;9.174;2023-02-12T04:23:41;5.50;99.90
48744;DHT22;34538;48.836;9.174;2023-02-12T04:26:17;5.50;99.90
48744;DHT22;34538;48.836;9.174;2023-02-12T04:28:54;5.50;99.90
48744;DHT22;34538;48.836;9.174;2023-02-12T04:31:28;5.50;99.90
48744;DHT22;34538;48.836;9.174;2023-02-12T04:34:04;5.40;99.90
48744;DHT22;34538;48.836;9.174;2023-02-12T04:36:37;5.40;99.90
48744;DHT22;34538;48.836;9.174;2023-02-12T04:39:08;5.40;99.90
48744;DHT22;34538;48.836;9.174;2023-02-12T04:41:37;5.40;99.90
48744;DHT22;34538;48.836;9.174;2023-02-12T04:44:18;5.40;99.90
48744;DHT22;34538;48.836;9.174;2023-02-12T04:46:47;5.50;99.90
48744;DHT22;34538;48.836;9.174;2023-02-12T04:49:16;5.40;99.90
48744;DHT22;34538;48.836;9.174;2023-02-12T04:51:44;5.40;99.90
48744;DHT22;34538;48.836;9.174;2023-02-12T04:54:12;5.40;99.90
48744;DHT22;34538;48.836;9.174;2023-02-12T04:56:38;5.40;99.90
48744;DHT22;34538;48.836;9.174;2023-02-12T04:59:05;5.40;99.90
48744;DHT22;34538;48.836;9.174;2023-02-12T05:01:33;5.40;99.90
48744;DHT22;34538;48.836;9.174;2023-02-12T05:04:01;5.40;99.90
48744;DHT22;34538;48.836;9.174;2023-02-12T05:06:30;5.40;99.90
48744;DHT22;34538;48.836;9.174;2023-02-12T05:08:57;5.40;99.90
48744;DHT22;34538;48.836;9.174;2023-02-12T05:11:24;5.40;99.90
48744;DHT22;34538;48.836;9.174;2023-02-12T05:13:51;5.40;99.90
48744;DHT22;34538;48.836;9.174;2023-02-12T05:16:19;5.40;99.90
48744;DHT22;34538;48.836;9.174;2023-02-12T05:18:47;5.40;99.90
48744;DHT22;34538;48.836;9.174;2023-02-12T05:21:14;5.40;99.90
48744;DHT22;34538;48.836;9.174;2023-02-12T05:23:42;5.40;99.90
48744;DHT22;34538;48.836;9.174;2023-02-12T05:26:11;5.40;99.90
48744;DHT22;34538;48.836;9.174;2023-02-12T05:28:39;5.40;99.90
48744;DHT22;34538;48.836;9.174;2023-02-12T05:31:07;5.40;99.90
48744;DHT22;34538;48.836;9.174;2023-02-12T05:33:34;5.40;99.90
48744;DHT22;34538;48.836;9.174;2023-02-12T05:36:03;5.40;99.90
48744;DHT22;34538;48.836;9.174;2023-02-12T05:38:30;5.30;99.90
48744;DHT22;34538;48.836;9.174;2023-02-12T05:41:02;5.30;99.90
48744;DHT22;34538;48.836;9.174;2023-02-12T05:43:29;5.30;99.90
48744;DHT22;34538;48.836;9.174;2023-02-12T05:45:58;5.30;99.90
48744;DHT22;34538;48.836;9.174;2023-02-12T05:48:25;5.30;99.90
48744;DHT22;34538;48.836;9.174;2023-02-12T05:50:52;5.30;99.90
48744;DHT22;34538;48.836;9.174;2023-02-12T05:53:18;5.30;99.90
48744;DHT22;34538;48.836;9.174;2023-02-12T05:55:45;5.30;99.90
48744;DHT22;34538;48.836;9.174;2023-02-12T05:58:13;5.30;99.90
48744;DHT22;34538;48.836;9.174;2023-02-12T06:00:40;5.30;99.90
48744;DHT22;34538;48.836;9.174;2023-02-12T06:03:07;5.30;99.90
48744;DHT22;34538;48.836;9.174;2023-02-12T06:05:34;5.30;99.90
48744;DHT22;34538;48.836;9.174;2023-02-12T06:08:01;5.30;99.90
48744;DHT22;34538;48.836;9.174;2023-02-12T06:10:28;5.30;99.90
48744;DHT22;34538;48.836;9.174;2023-02-12T06:12:55;5.30;99.90
48744;DHT22;34538;48.836;9.174;2023-02-12T06:15:23;5.30;99.90
48744;DHT22;34538;48.836;9.174;2023-02-12T06:17:49;5.30;99.90
48744;DHT22;34538;48.836;9.174;2023-02-12T06:20:16;5.30;99.90
48744;DHT22;34538;48.836;9.174;2023-02-12T06:22:43;5.30;99.90
48744;DHT22;34538;48.836;9.174;2023-02-12T06:25:10;5.20;99.90
48744;DHT22;34538;48.836;9.174;2023-02-12T06:27:37;5.20;99.90
48744;DHT22;34538;48.836;9.174;2023-02-12T06:30:04;5.30;99.90
48744;DHT22;34538;48.836;9.174;2023-02-12T06:32:33;5.20;99.90
48744;DHT22;34538;48.836;9.174;2023-02-12T06:35:00;5.20;99.90
48744;DHT22;34538;48.836;9.174;2023-02-12T06:37:26;5.20;99.90
48744;DHT22;34538;48.836;9.174;2023-02-12T06:39:53;5.20;99.90
48744;DHT22;34538;48.836;9.174;2023-02-12T06:42:20;5.20;99.90
48744;DHT22;34538;48.836;9.174;2023-02-12T06:44:47;5.20;99.90
48744;DHT22;34538;48.836;9.174;2023-02-12T06:47:14;5.20;99.90
48744;DHT22;34538;48.836;9.174;2023-02-12T06:49:42;5.20;99.90
48744;DHT22;34538;48.836;9.174;2023-02-12T06:52:09;5.20;99.90
48744;DHT22;34538;48.836;9.174;2023-02-12T06:54:35;5.20;99.90
48744;DHT22;34538;48.836;9.174;2023-02-12T06:57:02;5.20;99.90
48744;DHT22;34538;48.836;9.174;2023-02-12T06:59:29;5.20;99.90
48744;DHT22;34538;48.836;9.174;2023-02-12T07:01:56;5.20;99.90
48744;DHT22;34538;48.836;9.174;2023-02-12T07:04:23;5.20;99.90
48744;DHT22;34538;48.836;9.174;2023-02-12T07:06:51;5.30;99.90
48744;DHT22;34538;48.836;9.174;2023-02-12T07:09:18;5.30;99.90
48744;DHT22;34538;48.836;9.174;2023-02-12T07:11:45;5.30;99.90
48744;DHT22;34538;48.836;9.174;2023-02-12T07:14:13;5.30;99.90
48744;DHT22;34538;48.836;9.174;2023-02-12T07:16:40;5.40;99.90
48744;DHT22;34538;48.836;9.174;2023-02-12T07:19:09;5.40;99.90
48744;DHT22;34538;48.836;9.174;2023-02-12T07:21:37;5.40;99.90
48744;DHT22;34538;48.836;9.174;2023-02-12T07:24:05;5.50;99.90
48744;DHT22;34538;48.836;9.174;2023-02-12T07:26:33;5.50;99.90
48744;DHT22;34538;48.836;9.174;2023-02-12T07:29:00;5.50;99.90
48744;DHT22;34538;48.836;9.174;2023-02-12T07:31:28;5.60;99.90
48744;DHT22;34538;48.836;9.174;2023-02-12T07:33:56;5.60;99.90
48744;DHT22;34538;48.836;9.174;2023-02-12T07:36:25;5.60;99.90
48744;DHT22;34538;48.836;9.174;2023-02-12T07:38:53;5.70;99.90
48744;DHT22;34538;48.836;9.174;2023-02-12T07:41:23;5.70;99.90
48744;DHT22;34538;48.836;9.174;2023-02-12T07:43:53;5.70;99.90
48744;DHT22;34538;48.836;9.174;2023-02-12T07:46:23;5.70;99.90
48744;DHT22;34538;48.836;9.174;2023-02-12T07:48:54;5.70;99.90
48744;DHT22;34538;48.836;9.174;2023-02-12T07:51:22;5.70;99.90
48744;DHT22;34538;48.836;9.174;2023-02-12T07:53:48;5.80;99.90
48744;DHT22;34538;48.836;9.174;2023-02-12T07:56:18;5.80;99.90
48744;DHT22;34538;48.836;9.174;2023-02-12T07:58:48;5.80;99.90
48744;DHT22;34538;48.836;9.174;2023-02-12T08:01:17;5.80;99.90
48744;DHT22;34538;48.836;9.174;2023-02-12T08:03:45;5.80;99.90
48744;DHT22;34538;48.836;9.174;2023-02-12T08:06:14;5.80;99.90
48744;DHT22;34538;48.836;9.174;2023-02-12T08:08:41;5.80;99.90
48744;DHT22;34538;48.836;9.174;2023-02-12T08:11:10;5.90;99.90
48744;DHT22;34538;48.836;9.174;2023-02-12T08:13:37;5.90;99.90
48744;DHT22;34538;48.836;9.174;2023-02-12T08:16:07;5.90;99.90
48744;DHT22;34538;48.836;9.174;2023-02-12T08:18:35;6.00;99.90
48744;DHT22;34538;48.836;9.174;2023-02-12T08:21:02;6.00;99.90
48744;DHT22;34538;48.836;9.174;2023-02-12T08:23:30;6.10;99.90
48744;DHT22;34538;48.836;9.174;2023-02-12T08:26:08;6.10;99.90
48744;DHT22;34538;48.836;9.174;2023-02-12T08:28:38;6.20;99.90
48744;DHT22;34538;48.836;9.174;2023-02-12T08:31:08;6.20;99.90
48744;DHT22;34538;48.836;9.174;2023-02-12T08:33:36;6.30;99.90
48744;DHT22;34538;48.836;9.174;2023-02-12T08:36:04;6.30;99.90
48744;DHT22;34538;48.836;9.174;2023-02-12T08:38:32;6.40;99.90
48744;DHT22;34538;48.836;9.174;2023-02-12T08:41:03;6.40;99.90
48744;DHT22;34538;48.836;9.174;2023-02-12T08:43:30;6.50;99.90
48744;DHT22;34538;48.836;9.174;2023-02-12T08:46:01;6.50;99.90
48744;DHT22;34538;48.836;9.174;2023-02-12T08:48:30;6.50;99.90
48744;DHT22;34538;48.836;9.174;2023-02-12T08:51:05;6.60;99.90
48744;DHT22;34538;48.836;9.174;2023-02-12T08:53:33;6.60;99.90
48744;DHT22;34538;48.836;9.174;2023-02-12T08:56:00;6.60;99.90
48744;DHT22;34538;48.836;9.174;2023-02-12T08:58:27;6.60;99.90
48744;DHT22;34538;48.836;9.174;2023-02-12T09:00:54;6.60;99.90
48744;DHT22;34538;48.836;9.174;2023-02-12T09:03:21;6.60;99.90
48744;DHT22;34538;48.836;9.174;2023-02-12T09:05:49;6.60;99.90
48744;DHT22;34538;48.836;9.174;2023-02-12T09:08:16;6.70;99.90
48744;DHT22;34538;48.836;9.174;2023-02-12T09:10:44;6.70;99.90
48744;DHT22;34538;48.836;9.174;2023-02-12T09:13:12;6.70;99.90
48744;DHT22;34538;48.836;9.174;2023-02-12T09:15:41;6.70;99.90
48744;DHT22;34538;48.836;9.174;2023-02-12T09:18:08;6.80;99.90
48744;DHT22;34538;48.836;9.174;2023-02-12T09:20:37;6.80;99.90
48744;DHT22;34538;48.836;9.174;2023-02-12T09:23:06;6.90;99.90
48744;DHT22;34538;48.836;9.174;2023-02-12T09:25:33;6.90;99.90
48744;DHT22;34538;48.836;9.174;2023-02-12T09:28:00;6.90;99.90
48744;DHT22;34538;48.836;9.174;2023-02-12T09:30:27;6.90;99.90
48744;DHT22;34538;48.836;9.174;2023-02-12T09:32:54;7.00;99.90
48744;DHT22;34538;48.836;9.174;2023-02-12T09:35:21;7.00;99.90
48744;DHT22;34538;48.836;9.174;2023-02-12T09:37:49;7.10;99.90
48744;DHT22;34538;48.836;9.174;2023-02-12T09:40:19;7.20;99.90
48744;DHT22;34538;48.836;9.174;2023-02-12T09:42:59;7.20;99.90
48744;DHT22;34538;48.836;9.174;2023-02-12T09:45:33;7.30;99.90
48744;DHT22;34538;48.836;9.174;2023-02-12T09:48:10;7.40;99.90
48744;DHT22;34538;48.836;9.174;2023-02-12T09:50:44;7.50;99.90
48744;DHT22;34538;48.836;9.174;2023-02-12T09:53:13;7.60;99.90
48744;DHT22;34538;48.836;9.174;2023-02-12T09:55:42;7.70;99.90
48744;DHT22;34538;48.836;9.174;2023-02-12T09:58:13;7.70;99.90
48744;DHT22;34538;48.836;9.174;2023-02-12T10:00:40;7.80;99.90
48744;DHT22;34538;48.836;9.174;2023-02-12T10:03:12;7.90;99.90
48744;DHT22;34538;48.836;9.174;2023-02-12T10:05:41;8.00;99.90
48744;DHT22;34538;48.836;9.174;2023-02-12T10:08:28;8.00;99.90
48744;DHT22;34538;48.836;9.174;2023-02-12T10:11:10;8.00;99.90
48744;DHT22;34538;48.836;9.174;2023-02-12T10:13:45;8.00;99.90
48744;DHT22;34538;48.836;9.174;2023-02-12T10:16:30;8.10;99.90
48744;DHT22;34538;48.836;9.174;2023-02-12T10:19:21;8.20;99.90
48744;DHT22;34538;48.836;9.174;2023-02-12T10:21:58;8.30;99.90
48744;DHT22;34538;48.836;9.174;2023-02-12T10:24:51;8.40;99.90
48744;DHT22;34538;48.836;9.174;2023-02-12T10:27:37;8.40;99.90
48744;DHT22;34538;48.836;9.174;2023-02-12T10:30:14;8.40;99.90
48744;DHT22;34538;48.836;9.174;2023-02-12T10:32:45;8.50;99.90
48744;DHT22;34538;48.836;9.174;2023-02-12T10:35:14;8.50;99.90
48744;DHT22;34538;48.836;9.174;2023-02-12T10:37:43;8.60;99.90
48744;DHT22;34538;48.836;9.174;2023-02-12T10:40:16;8.60;99.90
48744;DHT22;34538;48.836;9.174;2023-02-12T10:42:47;8.60;99.90
48744;DHT22;34538;48.836;9.174;2023-02-12T10:45:16;8.60;99.90
48744;DHT22;34538;48.836;9.174;2023-02-12T10:47:44;8.60;99.90
48744;DHT22;34538;48.836;9.174;2023-02-12T10:50:17;8.60;99.90
48744;DHT22;34538;48.836;9.174;2023-02-12T10:52:48;8.60;99.90
48744;DHT22;34538;48.836;9.174;2023-02-12T10:55:26;8.60;99.90
48744;DHT22;34538;48.836;9.174;2023-02-12T10:57:55;8.70;99.90
48744;DHT22;34538;48.836;9.174;2023-02-12T11:00:25;8.70;99.90
48744;DHT22;34538;48.836;9.174;2023-02-12T11:03:02;8.80;99.90
48744;DHT22;34538;48.836;9.174;2023-02-12T11:05:31;8.80;99.90
48744;DHT22;34538;48.836;9.174;2023-02-12T11:07:59;8.80;99.90
48744;DHT22;34538;48.836;9.174;2023-02-12T11:10:27;8.80;99.90
48744;DHT22;34538;48.836;9.174;2023-02-12T11:12:58;8.90;99.90
48744;DHT22;34538;48.836;9.174;2023-02-12T11:15:27;8.80;99.90
48744;DHT22;34538;48.836;9.174;2023-02-12T11:17:58;8.80;99.90
48744;DHT22;34538;48.836;9.174;2023-02-12T11:20:27;8.90;99.90
48744;DHT22;34538;48.836;9.174;2023-02-12T11:22:57;8.90;99.90
48744;DHT22;34538;48.836;9.174;2023-02-12T11:25:26;9.00;99.90
48744;DHT22;34538;48.836;9.174;2023-02-12T11:28:04;9.10;99.90
48744;DHT22;34538;48.836;9.174;2023-02-12T11:30:32;9.20;99.90
48744;DHT22;34538;48.836;9.174;2023-02-12T11:33:15;9.30;99.90
48744;DHT22;34538;48.836;9.174;2023-02-12T11:35:49;9.30;99.90
48744;DHT22;34538;48.836;9.174;2023-02-12T11:38:22;9.30;99.90
48744;DHT22;34538;48.836;9.174;2023-02-12T11:40:51;9.40;99.90
48744;DHT22;34538;48.836;9.174;2023-02-12T11:43:20;9.40;99.90
48744;DHT22;34538;48.836;9.174;2023-02-12T11:45:50;9.50;99.90
48744;DHT22;34538;48.836;9.174;2023-02-12T11:48:24;9.50;99.90
48744;DHT22;34538;48.836;9.174;2023-02-12T11:50:52;9.50;99.90
48744;DHT22;34538;48.836;9.174;2023-02-12T11:53:22;9.50;99.90
48744;DHT22;34538;48.836;9.174;2023-02-12T11:55:55;9.50;99.90
48744;DHT22;34538;48.836;9.174;2023-02-12T11:58:24;9.50;99.90
48744;DHT22;34538;48.836;9.174;2023-02-12T12:00:55;9.50;99.90
48744;DHT22;34538;48.836;9.174;2023-02-12T12:03:27;9.60;99.90
48744;DHT22;34538;48.836;9.174;2023-02-12T12:06:00;9.70;99.90
48744;DHT22;34538;48.836;9.174;2023-02-12T12:08:35;9.70;99.90
48744;DHT22;34538;48.836;9.174;2023-02-12T12:11:10;9.70;99.90
48744;DHT22;34538;48.836;9.174;2023-02-12T12:13:43;9.80;99.90
48744;DHT22;34538;48.836;9.174;2023-02-12T12:16:17;9.80;99.90
48744;DHT22;34538;48.836;9.174;2023-02-12T12:19:07;9.90;99.90
48744;DHT22;34538;48.836;9.174;2023-02-12T12:21:57;9.90;99.90
48744;DHT22;34538;48.836;9.174;2023-02-12T12:24:34;10.00;99.90
48744;DHT22;34538;48.836;9.174;2023-02-12T12:27:09;10.00;99.90
48744;DHT22;34538;48.836;9.174;2023-02-12T12:29:54;10.00;99.90
48744;DHT22;34538;48.836;9.174;2023-02-12T12:32:26;10.00;99.90
48744;DHT22;34538;48.836;9.174;2023-02-12T12:34:56;10.00;99.90
48744;DHT22;34538;48.836;9.174;2023-02-12T12:37:30;10.00;99.90
48744;DHT22;34538;48.836;9.174;2023-02-12T12:40:13;10.00;99.90
48744;DHT22;34538;48.836;9.174;2023-02-12T12:42:54;10.10;99.90
48744;DHT22;34538;48.836;9.174;2023-02-12T12:45:37;10.00;99.90
48744;DHT22;34538;48.836;9.174;2023-02-12T12:48:16;10.00;99.90
48744;DHT22;34538;48.836;9.174;2023-02-12T12:51:00;10.10;99.90
48744;DHT22;34538;48.836;9.174;2023-02-12T12:53:48;10.20;99.90
48744;DHT22;34538;48.836;9.174;2023-02-12T12:56:33;10.20;99.90
48744;DHT22;34538;48.836;9.174;2023-02-12T13:05:33;10.30;99.90
48744;DHT22;34538;48.836;9.174;2023-02-12T13:08:07;10.30;99.90
48744;DHT22;34538;48.836;9.174;2023-02-12T13:10:43;10.40;99.90
48744;DHT22;34538;48.836;9.174;2023-02-12T13:13:20;10.40;99.90
48744;DHT22;34538;48.836;9.174;2023-02-12T13:15:55;10.40;99.90
48744;DHT22;34538;48.836;9.174;2023-02-12T13:18:33;10.30;99.90
48744;DHT22;34538;48.836;9.174;2023-02-12T13:21:12;10.30;99.90
48744;DHT22;34538;48.836;9.174;2023-02-12T13:23:44;10.20;99.90
48744;DHT22;34538;48.836;9.174;2023-02-12T13:26:18;10.20;99.90
48744;DHT22;34538;48.836;9.174;2023-02-12T13:28:50;10.20;99.90
48744;DHT22;34538;48.836;9.174;2023-02-12T13:31:21;10.10;99.90
48744;DHT22;34538;48.836;9.174;2023-02-12T13:33:52;10.10;99.90
48744;DHT22;34538;48.836;9.174;2023-02-12T13:36:20;10.10;99.90
48744;DHT22;34538;48.836;9.174;2023-02-12T13:38:51;10.00;99.90
48744;DHT22;34538;48.836;9.174;2023-02-12T13:41:21;10.20;99.90
48744;DHT22;34538;48.836;9.174;2023-02-12T13:43:57;10.20;99.90
48744;DHT22;34538;48.836;9.174;2023-02-12T13:46:33;10.20;99.90
48744;DHT22;34538;48.836;9.174;2023-02-12T13:49:14;10.20;99.90
48744;DHT22;34538;48.836;9.174;2023-02-12T13:51:45;10.20;99.90
48744;DHT22;34538;48.836;9.174;2023-02-12T13:54:23;10.20;99.90
48744;DHT22;34538;48.836;9.174;2023-02-12T13:56:53;10.20;99.90
48744;DHT22;34538;48.836;9.174;2023-02-12T13:59:54;10.10;99.90
48744;DHT22;34538;48.836;9.174;2023-02-12T14:02:43;10.10;99.90
48744;DHT22;34538;48.836;9.174;2023-02-12T14:05:23;10.00;99.90
48744;DHT22;34538;48.836;9.174;2023-02-12T14:07:53;10.00;99.90
48744;DHT22;34538;48.836;9.174;2023-02-12T14:10:23;10.00;99.90
48744;DHT22;34538;48.836;9.174;2023-02-12T14:12:51;10.00;99.90
48744;DHT22;34538;48.836;9.174;2023-02-12T14:15:28;10.00;99.90
48744;DHT22;34538;48.836;9.174;2023-02-12T14:18:04;10.10;99.90
48744;DHT22;34538;48.836;9.174;2023-02-12T14:20:33;10.00;99.90
48744;DHT22;34538;48.836;9.174;2023-02-12T14:23:22;10.00;99.90
48744;DHT22;34538;48.836;9.174;2023-02-12T14:26:04;10.00;99.90
48744;DHT22;34538;48.836;9.174;2023-02-12T14:28:48;10.00;99.90
48744;DHT22;34538;48.836;9.174;2023-02-12T14:31:32;10.00;99.90
48744;DHT22;34538;48.836;9.174;2023-02-12T14:37:33;9.90;99.90
48744;DHT22;34538;48.836;9.174;2023-02-12T14:40:41;9.90;99.90
48744;DHT22;34538;48.836;9.174;2023-02-12T14:43:24;9.80;99.90
48744;DHT22;34538;48.836;9.174;2023-02-12T14:45:52;9.80;99.90
48744;DHT22;34538;48.836;9.174;2023-02-12T14:48:49;9.80;99.90
48744;DHT22;34538;48.836;9.174;2023-02-12T14:51:21;9.80;99.90
48744;DHT22;34538;48.836;9.174;2023-02-12T14:53:55;9.80;99.90
48744;DHT22;34538;48.836;9.174;2023-02-12T14:56:22;9.70;99.90
48744;DHT22;34538;48.836;9.174;2023-02-12T14:58:51;9.70;99.90
48744;DHT22;34538;48.836;9.174;2023-02-12T15:01:27;9.60;99.90
48744;DHT22;34538;48.836;9.174;2023-02-12T15:03:57;9.70;99.90
48744;DHT22;34538;48.836;9.174;2023-02-12T15:06:32;9.60;99.90
48744;DHT22;34538;48.836;9.174;2023-02-12T15:09:08;9.60;99.90
48744;DHT22;34538;48.836;9.174;2023-02-12T15:11:40;9.60;99.90
48744;DHT22;34538;48.836;9.174;2023-02-12T15:14:15;9.70;99.90
48744;DHT22;34538;48.836;9.174;2023-02-12T15:16:51;9.60;99.90
48744;DHT22;34538;48.836;9.174;2023-02-12T15:19:33;9.60;99.90
48744;DHT22;34538;48.836;9.174;2023-02-12T15:22:03;9.60;99.90
48744;DHT22;34538;48.836;9.174;2023-02-12T15:24:31;9.60;99.90
48744;DHT22;34538;48.836;9.174;2023-02-12T15:26:58;9.60;99.90
48744;DHT22;34538;48.836;9.174;2023-02-12T15:29:27;9.50;99.90
48744;DHT22;34538;48.836;9.174;2023-02-12T15:31:56;9.50;99.90
48744;DHT22;34538;48.836;9.174;2023-02-12T15:34:27;9.50;99.90
48744;DHT22;34538;48.836;9.174;2023-02-12T15:36:55;9.40;99.90
48744;DHT22;34538;48.836;9.174;2023-02-12T15:39:23;9.40;99.90
48744;DHT22;34538;48.836;9.174;2023-02-12T15:41:51;9.40;99.90
48744;DHT22;34538;48.836;9.174;2023-02-12T15:44:28;9.40;99.90
48744;DHT22;34538;48.836;9.174;2023-02-12T15:47:00;9.40;99.90
48744;DHT22;34538;48.836;9.174;2023-02-12T15:49:31;9.30;99.90
48744;DHT22;34538;48.836;9.174;2023-02-12T15:52:02;9.30;99.90
48744;DHT22;34538;48.836;9.174;2023-02-12T15:54:29;9.30;99.90
48744;DHT22;34538;48.836;9.174;2023-02-12T15:56:58;9.20;99.90
48744;DHT22;34538;48.836;9.174;2023-02-12T15:59:26;9.20;99.90
48744;DHT22;34538;48.836;9.174;2023-02-12T16:01:56;9.20;99.90
48744;DHT22;34538;48.836;9.174;2023-02-12T16:04:25;9.20;99.90
48744;DHT22;34538;48.836;9.174;2023-02-12T16:06:54;9.10;99.90
48744;DHT22;34538;48.836;9.174;2023-02-12T16:09:25;9.10;99.90
48744;DHT22;34538;48.836;9.174;2023-02-12T16:11:54;9.00;99.90
48744;DHT22;34538;48.836;9.174;2023-02-12T16:14:25;9.00;99.90
48744;DHT22;34538;48.836;9.174;2023-02-12T16:16:53;8.90;99.90
48744;DHT22;34538;48.836;9.174;2023-02-12T16:19:22;8.90;99.90
48744;DHT22;34538;48.836;9.174;2023-02-12T16:21:52;8.80;99.90
48744;DHT22;34538;48.836;9.174;2023-02-12T16:24:25;8.80;99.90